sensor_id;sensor_type;location;lat;lon;timestamp;P1;durP1;ratioP1;P2;durP2;ratioP2
68192;SDS011;55012;47.562;18.414;2024-03-02T00:00:07;40.67;;;21.85;;
68192;SDS011;55012;47.562;18.414;2024-03-02T00:02:44;39.45;;;21.30;;
68192;SDS011;55012;47.562;18.414;2024-03-02T00:05:11;40.72;;;21.55;;
68192;SDS011;55012;47.562;18.414;2024-03-02T00:07:37;44.83;;;22.13;;
68192;SDS011;55012;47.562;18.414;2024-03-02T00:10:07;47.53;;;22.77;;
68192;SDS011;55012;47.562;18.414;2024-03-02T00:12:35;44.53;;;22.63;;
68192;SDS011;55012;47.562;18.414;2024-03-02T00:15:03;48.17;;;24.13;;
68192;SDS011;55012;47.562;18.414;2024-03-02T00:17:31;47.85;;;23.48;;
68192;SDS011;55012;47.562;18.414;2024-03-02T00:19:57;44.28;;;22.05;;
68192;SDS011;55012;47.562;18.414;2024-03-02T00:22:22;43.70;;;21.75;;
68192;SDS011;55012;47.562;18.414;2024-03-02T00:24:48;49.35;;;23.50;;
68192;SDS011;55012;47.562;18.414;2024-03-02T00:27:14;47.05;;;24.60;;
68192;SDS011;55012;47.562;18.414;2024-03-02T00:29:41;51.50;;;26.55;;
68192;SDS011;55012;47.562;18.414;2024-03-02T00:32:13;52.35;;;25.65;;
68192;SDS011;55012;47.562;18.414;2024-03-02T00:34:41;52.13;;;25.25;;
68192;SDS011;55012;47.562;18.414;2024-03-02T00:37:07;47.00;;;23.73;;
68192;SDS011;55012;47.562;18.414;2024-03-02T00:39:33;49.08;;;24.33;;
68192;SDS011;55012;47.562;18.414;2024-03-02T00:41:58;47.00;;;23.95;;
68192;SDS011;55012;47.562;18.414;2024-03-02T00:44:25;48.63;;;23.25;;
68192;SDS011;55012;47.562;18.414;2024-03-02T00:46:51;44.90;;;22.70;;
68192;SDS011;55012;47.562;18.414;2024-03-02T00:49:22;45.58;;;22.50;;
68192;SDS011;55012;47.562;18.414;2024-03-02T00:51:49;45.97;;;23.77;;
68192;SDS011;55012;47.562;18.414;2024-03-02T00:54:15;53.63;;;25.98;;
68192;SDS011;55012;47.562;18.414;2024-03-02T00:56:45;60.17;;;31.30;;
68192;SDS011;55012;47.562;18.414;2024-03-02T00:59:12;63.35;;;32.38;;
68192;SDS011;55012;47.562;18.414;2024-03-02T01:01:37;63.97;;;31.00;;
68192;SDS011;55012;47.562;18.414;2024-03-02T01:04:03;63.70;;;31.73;;
68192;SDS011;55012;47.562;18.414;2024-03-02T01:06:28;55.33;;;28.88;;
68192;SDS011;55012;47.562;18.414;2024-03-02T01:08:55;54.08;;;27.52;;
68192;SDS011;55012;47.562;18.414;2024-03-02T01:11:20;57.33;;;26.58;;
68192;SDS011;55012;47.562;18.414;2024-03-02T01:13:48;54.60;;;26.35;;
68192;SDS011;55012;47.562;18.414;2024-03-02T01:16:14;50.72;;;25.05;;
68192;SDS011;55012;47.562;18.414;2024-03-02T01:18:40;53.33;;;25.30;;
68192;SDS011;55012;47.562;18.414;2024-03-02T01:21:07;47.13;;;23.50;;
68192;SDS011;55012;47.562;18.414;2024-03-02T01:23:32;50.92;;;24.85;;
68192;SDS011;55012;47.562;18.414;2024-03-02T01:25:58;51.92;;;24.88;;
68192;SDS011;55012;47.562;18.414;2024-03-02T01:28:23;52.75;;;25.17;;
68192;SDS011;55012;47.562;18.414;2024-03-02T01:30:48;51.10;;;24.50;;
68192;SDS011;55012;47.562;18.414;2024-03-02T01:33:14;53.63;;;25.15;;
68192;SDS011;55012;47.562;18.414;2024-03-02T01:35:40;76.40;;;35.78;;
68192;SDS011;55012;47.562;18.414;2024-03-02T01:38:06;87.30;;;45.28;;
68192;SDS011;55012;47.562;18.414;2024-03-02T01:40:34;85.18;;;41.85;;
68192;SDS011;55012;47.562;18.414;2024-03-02T01:43:00;69.13;;;35.40;;
68192;SDS011;55012;47.562;18.414;2024-03-02T01:45:25;56.10;;;28.50;;
68192;SDS011;55012;47.562;18.414;2024-03-02T01:47:51;57.65;;;31.20;;
68192;SDS011;55012;47.562;18.414;2024-03-02T01:50:24;72.07;;;38.63;;
68192;SDS011;55012;47.562;18.414;2024-03-02T01:52:51;95.00;;;50.23;;
68192;SDS011;55012;47.562;18.414;2024-03-02T01:55:16;96.50;;;51.17;;
68192;SDS011;55012;47.562;18.414;2024-03-02T01:57:41;109.32;;;54.70;;
68192;SDS011;55012;47.562;18.414;2024-03-02T02:00:08;112.03;;;56.80;;
68192;SDS011;55012;47.562;18.414;2024-03-02T02:02:34;99.25;;;50.08;;
68192;SDS011;55012;47.562;18.414;2024-03-02T02:05:00;93.55;;;44.80;;
68192;SDS011;55012;47.562;18.414;2024-03-02T02:07:25;83.03;;;40.08;;
68192;SDS011;55012;47.562;18.414;2024-03-02T02:09:50;76.78;;;37.20;;
68192;SDS011;55012;47.562;18.414;2024-03-02T02:12:16;74.80;;;36.00;;
68192;SDS011;55012;47.562;18.414;2024-03-02T02:14:46;70.07;;;34.08;;
68192;SDS011;55012;47.562;18.414;2024-03-02T02:17:13;60.55;;;31.92;;
68192;SDS011;55012;47.562;18.414;2024-03-02T02:19:40;57.42;;;28.50;;
68192;SDS011;55012;47.562;18.414;2024-03-02T02:22:06;61.17;;;28.52;;
68192;SDS011;55012;47.562;18.414;2024-03-02T02:24:31;61.83;;;31.70;;
68192;SDS011;55012;47.562;18.414;2024-03-02T02:26:56;65.55;;;31.67;;
68192;SDS011;55012;47.562;18.414;2024-03-02T02:29:21;69.30;;;34.22;;
68192;SDS011;55012;47.562;18.414;2024-03-02T02:31:47;59.22;;;31.23;;
68192;SDS011;55012;47.562;18.414;2024-03-02T02:34:13;69.53;;;34.28;;
68192;SDS011;55012;47.562;18.414;2024-03-02T02:36:39;67.35;;;34.45;;
68192;SDS011;55012;47.562;18.414;2024-03-02T02:39:05;62.72;;;34.17;;
68192;SDS011;55012;47.562;18.414;2024-03-02T02:41:35;61.03;;;31.30;;
68192;SDS011;55012;47.562;18.414;2024-03-02T02:44:01;63.45;;;31.15;;
68192;SDS011;55012;47.562;18.414;2024-03-02T02:46:26;53.00;;;27.27;;
68192;SDS011;55012;47.562;18.414;2024-03-02T02:48:51;52.28;;;26.35;;
68192;SDS011;55012;47.562;18.414;2024-03-02T02:51:18;53.95;;;25.25;;
68192;SDS011;55012;47.562;18.414;2024-03-02T02:53:43;54.10;;;27.75;;
68192;SDS011;55012;47.562;18.414;2024-03-02T02:56:09;56.10;;;28.65;;
68192;SDS011;55012;47.562;18.414;2024-03-02T02:58:34;61.78;;;31.77;;
68192;SDS011;55012;47.562;18.414;2024-03-02T03:01:00;58.17;;;29.73;;
68192;SDS011;55012;47.562;18.414;2024-03-02T03:03:26;59.65;;;30.80;;
68192;SDS011;55012;47.562;18.414;2024-03-02T03:05:51;59.22;;;29.77;;
68192;SDS011;55012;47.562;18.414;2024-03-02T03:08:16;56.47;;;29.25;;
68192;SDS011;55012;47.562;18.414;2024-03-02T03:10:42;56.30;;;29.42;;
68192;SDS011;55012;47.562;18.414;2024-03-02T03:13:07;53.45;;;28.58;;
68192;SDS011;55012;47.562;18.414;2024-03-02T03:15:36;60.25;;;31.20;;
68192;SDS011;55012;47.562;18.414;2024-03-02T03:18:03;60.80;;;31.27;;
68192;SDS011;55012;47.562;18.414;2024-03-02T03:20:29;65.63;;;34.88;;
68192;SDS011;55012;47.562;18.414;2024-03-02T03:22:54;68.22;;;34.58;;
68192;SDS011;55012;47.562;18.414;2024-03-02T03:25:20;63.20;;;31.80;;
68192;SDS011;55012;47.562;18.414;2024-03-02T03:27:45;50.88;;;25.70;;
68192;SDS011;55012;47.562;18.414;2024-03-02T03:30:11;49.50;;;24.95;;
68192;SDS011;55012;47.562;18.414;2024-03-02T03:32:36;44.13;;;22.77;;
68192;SDS011;55012;47.562;18.414;2024-03-02T03:35:02;44.03;;;21.85;;
68192;SDS011;55012;47.562;18.414;2024-03-02T03:37:28;46.63;;;21.85;;
68192;SDS011;55012;47.562;18.414;2024-03-02T03:39:57;44.38;;;20.83;;
68192;SDS011;55012;47.562;18.414;2024-03-02T03:42:24;37.13;;;18.80;;
68192;SDS011;55012;47.562;18.414;2024-03-02T03:44:49;39.85;;;19.27;;
68192;SDS011;55012;47.562;18.414;2024-03-02T03:47:15;38.55;;;19.23;;
68192;SDS011;55012;47.562;18.414;2024-03-02T03:49:40;40.60;;;19.23;;
68192;SDS011;55012;47.562;18.414;2024-03-02T03:52:06;38.92;;;18.98;;
68192;SDS011;55012;47.562;18.414;2024-03-02T03:54:31;39.28;;;19.10;;
68192;SDS011;55012;47.562;18.414;2024-03-02T03:56:56;38.03;;;19.38;;
68192;SDS011;55012;47.562;18.414;2024-03-02T03:59:22;37.33;;;18.13;;
68192;SDS011;55012;47.562;18.414;2024-03-02T04:01:47;39.08;;;18.73;;
68192;SDS011;55012;47.562;18.414;2024-03-02T04:04:13;38.05;;;18.70;;
68192;SDS011;55012;47.562;18.414;2024-03-02T04:06:38;37.72;;;19.23;;
68192;SDS011;55012;47.562;18.414;2024-03-02T04:09:03;37.15;;;18.83;;
68192;SDS011;55012;47.562;18.414;2024-03-02T04:11:29;40.88;;;19.55;;
68192;SDS011;55012;47.562;18.414;2024-03-02T04:13:55;37.08;;;18.83;;
68192;SDS011;55012;47.562;18.414;2024-03-02T04:16:20;40.95;;;19.35;;
68192;SDS011;55012;47.562;18.414;2024-03-02T04:18:46;36.42;;;18.38;;
68192;SDS011;55012;47.562;18.414;2024-03-02T04:21:11;39.53;;;18.75;;
68192;SDS011;55012;47.562;18.414;2024-03-02T04:23:37;40.38;;;18.70;;
68192;SDS011;55012;47.562;18.414;2024-03-02T04:26:02;39.47;;;18.55;;
68192;SDS011;55012;47.562;18.414;2024-03-02T04:28:28;39.20;;;19.20;;
68192;SDS011;55012;47.562;18.414;2024-03-02T04:30:53;38.15;;;18.98;;
68192;SDS011;55012;47.562;18.414;2024-03-02T04:33:18;39.42;;;18.60;;
68192;SDS011;55012;47.562;18.414;2024-03-02T04:35:44;39.20;;;19.30;;
68192;SDS011;55012;47.562;18.414;2024-03-02T04:38:09;40.22;;;19.58;;
68192;SDS011;55012;47.562;18.414;2024-03-02T04:40:35;39.42;;;18.80;;
68192;SDS011;55012;47.562;18.414;2024-03-02T04:43:00;39.70;;;19.00;;
68192;SDS011;55012;47.562;18.414;2024-03-02T04:45:25;40.45;;;18.95;;
68192;SDS011;55012;47.562;18.414;2024-03-02T04:47:51;42.88;;;19.63;;
68192;SDS011;55012;47.562;18.414;2024-03-02T04:50:16;41.42;;;19.75;;
68192;SDS011;55012;47.562;18.414;2024-03-02T04:52:41;39.60;;;19.25;;
68192;SDS011;55012;47.562;18.414;2024-03-02T04:55:07;39.85;;;20.45;;
68192;SDS011;55012;47.562;18.414;2024-03-02T04:57:44;38.67;;;19.77;;
68192;SDS011;55012;47.562;18.414;2024-03-02T05:00:11;41.47;;;19.67;;
68192;SDS011;55012;47.562;18.414;2024-03-02T05:02:37;43.22;;;20.02;;
68192;SDS011;55012;47.562;18.414;2024-03-02T05:05:03;41.25;;;19.98;;
68192;SDS011;55012;47.562;18.414;2024-03-02T05:07:28;43.50;;;20.20;;
68192;SDS011;55012;47.562;18.414;2024-03-02T05:09:54;40.78;;;19.25;;
68192;SDS011;55012;47.562;18.414;2024-03-02T05:12:19;45.45;;;21.30;;
68192;SDS011;55012;47.562;18.414;2024-03-02T05:14:47;42.83;;;20.38;;
68192;SDS011;55012;47.562;18.414;2024-03-02T05:17:12;46.50;;;20.88;;
68192;SDS011;55012;47.562;18.414;2024-03-02T05:19:38;45.67;;;20.73;;
68192;SDS011;55012;47.562;18.414;2024-03-02T05:22:03;43.45;;;21.13;;
68192;SDS011;55012;47.562;18.414;2024-03-02T05:24:29;40.83;;;20.80;;
68192;SDS011;55012;47.562;18.414;2024-03-02T05:26:54;43.38;;;20.52;;
68192;SDS011;55012;47.562;18.414;2024-03-02T05:29:20;41.10;;;20.05;;
68192;SDS011;55012;47.562;18.414;2024-03-02T05:31:46;44.95;;;22.00;;
68192;SDS011;55012;47.562;18.414;2024-03-02T05:34:11;45.45;;;21.15;;
68192;SDS011;55012;47.562;18.414;2024-03-02T05:36:36;43.97;;;21.45;;
68192;SDS011;55012;47.562;18.414;2024-03-02T05:39:04;49.35;;;23.00;;
68192;SDS011;55012;47.562;18.414;2024-03-02T05:41:31;55.72;;;25.65;;
68192;SDS011;55012;47.562;18.414;2024-03-02T05:43:56;59.97;;;28.33;;
68192;SDS011;55012;47.562;18.414;2024-03-02T05:46:22;60.35;;;27.85;;
68192;SDS011;55012;47.562;18.414;2024-03-02T05:48:47;54.60;;;25.38;;
68192;SDS011;55012;47.562;18.414;2024-03-02T05:51:13;52.35;;;23.20;;
68192;SDS011;55012;47.562;18.414;2024-03-02T05:53:38;47.88;;;22.65;;
68192;SDS011;55012;47.562;18.414;2024-03-02T05:56:04;45.40;;;21.38;;
68192;SDS011;55012;47.562;18.414;2024-03-02T05:58:30;48.38;;;23.67;;
68192;SDS011;55012;47.562;18.414;2024-03-02T06:01:14;47.60;;;22.70;;
68192;SDS011;55012;47.562;18.414;2024-03-02T06:03:40;48.55;;;22.75;;
68192;SDS011;55012;47.562;18.414;2024-03-02T06:06:05;47.05;;;21.70;;
68192;SDS011;55012;47.562;18.414;2024-03-02T06:08:31;52.22;;;23.52;;
68192;SDS011;55012;47.562;18.414;2024-03-02T06:10:56;50.92;;;24.25;;
68192;SDS011;55012;47.562;18.414;2024-03-02T06:13:22;57.40;;;25.65;;
68192;SDS011;55012;47.562;18.414;2024-03-02T06:15:48;51.25;;;24.23;;
68192;SDS011;55012;47.562;18.414;2024-03-02T06:18:13;50.22;;;23.63;;
68192;SDS011;55012;47.562;18.414;2024-03-02T06:20:38;52.00;;;24.58;;
68192;SDS011;55012;47.562;18.414;2024-03-02T06:23:04;58.35;;;26.10;;
68192;SDS011;55012;47.562;18.414;2024-03-02T06:25:29;57.40;;;26.90;;
68192;SDS011;55012;47.562;18.414;2024-03-02T06:27:55;52.33;;;25.10;;
68192;SDS011;55012;47.562;18.414;2024-03-02T06:30:20;53.63;;;24.73;;
68192;SDS011;55012;47.562;18.414;2024-03-02T06:32:45;53.55;;;25.65;;
68192;SDS011;55012;47.562;18.414;2024-03-02T06:35:11;53.60;;;25.55;;
68192;SDS011;55012;47.562;18.414;2024-03-02T06:37:37;54.03;;;24.60;;
68192;SDS011;55012;47.562;18.414;2024-03-02T06:40:04;53.80;;;24.10;;
68192;SDS011;55012;47.562;18.414;2024-03-02T06:42:32;54.65;;;24.77;;
68192;SDS011;55012;47.562;18.414;2024-03-02T06:44:58;51.60;;;22.77;;
68192;SDS011;55012;47.562;18.414;2024-03-02T06:47:25;58.33;;;26.67;;
68192;SDS011;55012;47.562;18.414;2024-03-02T06:49:50;55.10;;;26.38;;
68192;SDS011;55012;47.562;18.414;2024-03-02T06:52:16;55.00;;;26.60;;
68192;SDS011;55012;47.562;18.414;2024-03-02T06:54:41;60.03;;;30.55;;
68192;SDS011;55012;47.562;18.414;2024-03-02T06:57:07;62.42;;;31.25;;
68192;SDS011;55012;47.562;18.414;2024-03-02T06:59:32;65.88;;;31.95;;
68192;SDS011;55012;47.562;18.414;2024-03-02T07:01:58;61.13;;;29.38;;
68192;SDS011;55012;47.562;18.414;2024-03-02T07:04:24;64.32;;;30.88;;
68192;SDS011;55012;47.562;18.414;2024-03-02T07:06:49;54.28;;;25.27;;
68192;SDS011;55012;47.562;18.414;2024-03-02T07:09:16;64.70;;;32.58;;
68192;SDS011;55012;47.562;18.414;2024-03-02T07:11:41;44.53;;;22.88;;
68192;SDS011;55012;47.562;18.414;2024-03-02T07:14:06;43.75;;;22.73;;
68192;SDS011;55012;47.562;18.414;2024-03-02T07:16:32;45.20;;;22.42;;
68192;SDS011;55012;47.562;18.414;2024-03-02T07:18:59;45.20;;;21.90;;
68192;SDS011;55012;47.562;18.414;2024-03-02T07:21:26;43.30;;;22.13;;
68192;SDS011;55012;47.562;18.414;2024-03-02T07:23:52;48.22;;;22.75;;
68192;SDS011;55012;47.562;18.414;2024-03-02T07:26:17;54.90;;;25.27;;
68192;SDS011;55012;47.562;18.414;2024-03-02T07:28:44;54.72;;;26.70;;
68192;SDS011;55012;47.562;18.414;2024-03-02T07:31:11;60.67;;;28.65;;
68192;SDS011;55012;47.562;18.414;2024-03-02T07:33:36;60.10;;;28.73;;
68192;SDS011;55012;47.562;18.414;2024-03-02T07:36:01;58.83;;;29.48;;
68192;SDS011;55012;47.562;18.414;2024-03-02T07:38:28;55.03;;;27.63;;
68192;SDS011;55012;47.562;18.414;2024-03-02T07:40:54;57.15;;;27.08;;
68192;SDS011;55012;47.562;18.414;2024-03-02T07:43:20;60.38;;;27.67;;
68192;SDS011;55012;47.562;18.414;2024-03-02T07:45:46;59.13;;;28.15;;
68192;SDS011;55012;47.562;18.414;2024-03-02T07:48:12;59.75;;;26.08;;
68192;SDS011;55012;47.562;18.414;2024-03-02T07:50:37;60.28;;;26.25;;
68192;SDS011;55012;47.562;18.414;2024-03-02T07:53:04;55.50;;;26.27;;
68192;SDS011;55012;47.562;18.414;2024-03-02T07:55:30;59.15;;;26.25;;
68192;SDS011;55012;47.562;18.414;2024-03-02T07:57:59;57.13;;;25.30;;
68192;SDS011;55012;47.562;18.414;2024-03-02T08:00:26;60.47;;;26.52;;
68192;SDS011;55012;47.562;18.414;2024-03-02T08:02:53;57.40;;;26.60;;
68192;SDS011;55012;47.562;18.414;2024-03-02T08:05:19;63.75;;;28.50;;
68192;SDS011;55012;47.562;18.414;2024-03-02T08:07:45;57.85;;;26.52;;
68192;SDS011;55012;47.562;18.414;2024-03-02T08:10:11;57.65;;;25.98;;
68192;SDS011;55012;47.562;18.414;2024-03-02T08:12:37;56.38;;;26.23;;
68192;SDS011;55012;47.562;18.414;2024-03-02T08:15:03;57.38;;;26.13;;
68192;SDS011;55012;47.562;18.414;2024-03-02T08:17:29;55.47;;;25.55;;
68192;SDS011;55012;47.562;18.414;2024-03-02T08:19:54;56.45;;;26.40;;
68192;SDS011;55012;47.562;18.414;2024-03-02T08:22:20;57.72;;;26.30;;
68192;SDS011;55012;47.562;18.414;2024-03-02T08:24:45;60.78;;;27.58;;
68192;SDS011;55012;47.562;18.414;2024-03-02T08:27:11;60.78;;;28.23;;
68192;SDS011;55012;47.562;18.414;2024-03-02T08:29:37;64.38;;;28.95;;
68192;SDS011;55012;47.562;18.414;2024-03-02T08:32:02;69.70;;;32.25;;
68192;SDS011;55012;47.562;18.414;2024-03-02T08:34:28;79.25;;;35.95;;
68192;SDS011;55012;47.562;18.414;2024-03-02T08:36:53;82.63;;;38.13;;
68192;SDS011;55012;47.562;18.414;2024-03-02T08:39:19;80.50;;;36.72;;
68192;SDS011;55012;47.562;18.414;2024-03-02T08:41:45;87.55;;;41.50;;
68192;SDS011;55012;47.562;18.414;2024-03-02T08:44:12;75.15;;;35.70;;
68192;SDS011;55012;47.562;18.414;2024-03-02T08:46:38;70.72;;;32.35;;
68192;SDS011;55012;47.562;18.414;2024-03-02T08:49:04;62.33;;;30.70;;
68192;SDS011;55012;47.562;18.414;2024-03-02T08:51:30;70.38;;;33.00;;
68192;SDS011;55012;47.562;18.414;2024-03-02T08:53:56;69.97;;;32.50;;
68192;SDS011;55012;47.562;18.414;2024-03-02T08:56:22;70.40;;;32.38;;
68192;SDS011;55012;47.562;18.414;2024-03-02T08:58:49;70.43;;;31.75;;
68192;SDS011;55012;47.562;18.414;2024-03-02T09:01:15;64.18;;;29.48;;
68192;SDS011;55012;47.562;18.414;2024-03-02T09:03:41;60.42;;;27.92;;
68192;SDS011;55012;47.562;18.414;2024-03-02T09:06:09;55.03;;;26.15;;
68192;SDS011;55012;47.562;18.414;2024-03-02T09:08:35;60.25;;;27.40;;
68192;SDS011;55012;47.562;18.414;2024-03-02T09:11:01;59.13;;;26.17;;
68192;SDS011;55012;47.562;18.414;2024-03-02T09:13:30;53.53;;;23.95;;
68192;SDS011;55012;47.562;18.414;2024-03-02T09:15:56;53.92;;;24.55;;
68192;SDS011;55012;47.562;18.414;2024-03-02T09:18:22;51.70;;;23.92;;
68192;SDS011;55012;47.562;18.414;2024-03-02T09:20:47;51.25;;;23.58;;
68192;SDS011;55012;47.562;18.414;2024-03-02T09:23:12;52.70;;;23.30;;
68192;SDS011;55012;47.562;18.414;2024-03-02T09:25:38;59.17;;;26.55;;
68192;SDS011;55012;47.562;18.414;2024-03-02T09:28:03;65.97;;;29.77;;
68192;SDS011;55012;47.562;18.414;2024-03-02T09:30:29;62.75;;;29.30;;
68192;SDS011;55012;47.562;18.414;2024-03-02T09:32:54;63.65;;;30.38;;
68192;SDS011;55012;47.562;18.414;2024-03-02T09:35:19;68.68;;;30.92;;
68192;SDS011;55012;47.562;18.414;2024-03-02T09:37:45;62.10;;;29.75;;
68192;SDS011;55012;47.562;18.414;2024-03-02T09:40:10;60.38;;;28.80;;
68192;SDS011;55012;47.562;18.414;2024-03-02T09:42:37;61.17;;;30.40;;
68192;SDS011;55012;47.562;18.414;2024-03-02T09:45:02;62.95;;;30.67;;
68192;SDS011;55012;47.562;18.414;2024-03-02T09:47:28;68.68;;;34.20;;
68192;SDS011;55012;47.562;18.414;2024-03-02T09:49:54;67.78;;;33.30;;
68192;SDS011;55012;47.562;18.414;2024-03-02T09:52:20;62.75;;;32.22;;
68192;SDS011;55012;47.562;18.414;2024-03-02T09:54:47;63.70;;;32.13;;
68192;SDS011;55012;47.562;18.414;2024-03-02T09:57:12;61.00;;;31.27;;
68192;SDS011;55012;47.562;18.414;2024-03-02T09:59:38;59.13;;;28.80;;
68192;SDS011;55012;47.562;18.414;2024-03-02T10:02:03;52.33;;;27.02;;
68192;SDS011;55012;47.562;18.414;2024-03-02T10:04:32;52.85;;;25.23;;
68192;SDS011;55012;47.562;18.414;2024-03-02T10:07:10;58.70;;;27.75;;
68192;SDS011;55012;47.562;18.414;2024-03-02T10:09:40;58.03;;;27.30;;
68192;SDS011;55012;47.562;18.414;2024-03-02T10:12:07;63.38;;;30.55;;
68192;SDS011;55012;47.562;18.414;2024-03-02T10:14:33;76.05;;;37.90;;
68192;SDS011;55012;47.562;18.414;2024-03-02T10:17:03;84.75;;;42.38;;
68192;SDS011;55012;47.562;18.414;2024-03-02T10:19:28;80.60;;;42.83;;
68192;SDS011;55012;47.562;18.414;2024-03-02T10:21:57;97.60;;;49.67;;
68192;SDS011;55012;47.562;18.414;2024-03-02T10:24:24;95.35;;;50.45;;
68192;SDS011;55012;47.562;18.414;2024-03-02T10:26:50;85.38;;;45.28;;
68192;SDS011;55012;47.562;18.414;2024-03-02T10:29:16;72.28;;;37.38;;
68192;SDS011;55012;47.562;18.414;2024-03-02T10:31:43;71.20;;;34.13;;
68192;SDS011;55012;47.562;18.414;2024-03-02T10:34:10;74.50;;;37.88;;
68192;SDS011;55012;47.562;18.414;2024-03-02T10:36:37;82.97;;;41.30;;
68192;SDS011;55012;47.562;18.414;2024-03-02T10:39:05;73.03;;;38.58;;
68192;SDS011;55012;47.562;18.414;2024-03-02T10:41:32;72.47;;;37.65;;
68192;SDS011;55012;47.562;18.414;2024-03-02T10:44:08;72.38;;;38.50;;
68192;SDS011;55012;47.562;18.414;2024-03-02T10:46:37;71.80;;;37.83;;
68192;SDS011;55012;47.562;18.414;2024-03-02T10:49:04;65.72;;;32.80;;
68192;SDS011;55012;47.562;18.414;2024-03-02T10:51:31;60.42;;;30.65;;
68192;SDS011;55012;47.562;18.414;2024-03-02T10:53:58;62.17;;;30.23;;
68192;SDS011;55012;47.562;18.414;2024-03-02T10:56:29;62.67;;;29.67;;
68192;SDS011;55012;47.562;18.414;2024-03-02T10:59:01;63.28;;;30.10;;
68192;SDS011;55012;47.562;18.414;2024-03-02T11:01:33;58.40;;;28.25;;
68192;SDS011;55012;47.562;18.414;2024-03-02T11:04:00;55.63;;;26.38;;
68192;SDS011;55012;47.562;18.414;2024-03-02T11:06:29;53.42;;;26.77;;
68192;SDS011;55012;47.562;18.414;2024-03-02T11:08:58;64.22;;;30.60;;
68192;SDS011;55012;47.562;18.414;2024-03-02T11:11:32;51.70;;;25.92;;
68192;SDS011;55012;47.562;18.414;2024-03-02T11:14:01;56.00;;;27.25;;
68192;SDS011;55012;47.562;18.414;2024-03-02T11:16:34;46.75;;;23.30;;
68192;SDS011;55012;47.562;18.414;2024-03-02T11:19:10;44.50;;;21.55;;
68192;SDS011;55012;47.562;18.414;2024-03-02T11:21:38;48.70;;;23.02;;
68192;SDS011;55012;47.562;18.414;2024-03-02T11:26:52;45.10;;;22.80;;
68192;SDS011;55012;47.562;18.414;2024-03-02T11:32:02;38.28;;;19.88;;
68192;SDS011;55012;47.562;18.414;2024-03-02T11:34:35;44.25;;;21.02;;
68192;SDS011;55012;47.562;18.414;2024-03-02T11:37:01;39.85;;;19.45;;
68192;SDS011;55012;47.562;18.414;2024-03-02T11:39:28;41.00;;;20.52;;
68192;SDS011;55012;47.562;18.414;2024-03-02T11:41:54;42.53;;;22.90;;
68192;SDS011;55012;47.562;18.414;2024-03-02T11:44:20;51.03;;;25.27;;
68192;SDS011;55012;47.562;18.414;2024-03-02T11:46:57;42.67;;;22.38;;
68192;SDS011;55012;47.562;18.414;2024-03-02T11:49:39;40.17;;;20.27;;
68192;SDS011;55012;47.562;18.414;2024-03-02T11:52:16;45.42;;;22.73;;
68192;SDS011;55012;47.562;18.414;2024-03-02T11:54:43;36.92;;;19.10;;
68192;SDS011;55012;47.562;18.414;2024-03-02T11:57:14;33.35;;;17.05;;
68192;SDS011;55012;47.562;18.414;2024-03-02T11:59:43;33.65;;;17.48;;
68192;SDS011;55012;47.562;18.414;2024-03-02T12:02:21;37.28;;;19.20;;
68192;SDS011;55012;47.562;18.414;2024-03-02T12:04:47;39.97;;;20.38;;
68192;SDS011;55012;47.562;18.414;2024-03-02T12:07:20;49.08;;;26.70;;
68192;SDS011;55012;47.562;18.414;2024-03-02T12:09:47;53.30;;;28.05;;
68192;SDS011;55012;47.562;18.414;2024-03-02T12:12:12;55.63;;;29.45;;
68192;SDS011;55012;47.562;18.414;2024-03-02T12:14:49;50.90;;;26.83;;
68192;SDS011;55012;47.562;18.414;2024-03-02T12:17:15;41.20;;;22.33;;
68192;SDS011;55012;47.562;18.414;2024-03-02T12:19:41;45.00;;;23.23;;
68192;SDS011;55012;47.562;18.414;2024-03-02T12:22:06;36.60;;;19.63;;
68192;SDS011;55012;47.562;18.414;2024-03-02T12:24:31;35.80;;;18.88;;
68192;SDS011;55012;47.562;18.414;2024-03-02T12:26:57;39.25;;;20.05;;
68192;SDS011;55012;47.562;18.414;2024-03-02T12:29:23;48.47;;;25.90;;
68192;SDS011;55012;47.562;18.414;2024-03-02T12:31:49;39.38;;;21.08;;
68192;SDS011;55012;47.562;18.414;2024-03-02T12:34:17;56.80;;;29.92;;
68192;SDS011;55012;47.562;18.414;2024-03-02T12:36:43;37.55;;;21.40;;
68192;SDS011;55012;47.562;18.414;2024-03-02T12:39:12;38.75;;;20.73;;
68192;SDS011;55012;47.562;18.414;2024-03-02T12:41:38;40.10;;;20.65;;
68192;SDS011;55012;47.562;18.414;2024-03-02T12:44:04;40.42;;;21.25;;
68192;SDS011;55012;47.562;18.414;2024-03-02T12:46:31;36.35;;;19.70;;
68192;SDS011;55012;47.562;18.414;2024-03-02T12:48:57;34.25;;;18.25;;
68192;SDS011;55012;47.562;18.414;2024-03-02T12:51:24;35.88;;;19.92;;
68192;SDS011;55012;47.562;18.414;2024-03-02T12:53:53;37.28;;;21.13;;
68192;SDS011;55012;47.562;18.414;2024-03-02T12:56:22;41.67;;;23.83;;
68192;SDS011;55012;47.562;18.414;2024-03-02T12:58:47;45.40;;;25.50;;
68192;SDS011;55012;47.562;18.414;2024-03-02T13:01:14;44.47;;;26.38;;
68192;SDS011;55012;47.562;18.414;2024-03-02T13:03:40;45.13;;;26.38;;
68192;SDS011;55012;47.562;18.414;2024-03-02T13:06:06;40.17;;;24.40;;
68192;SDS011;55012;47.562;18.414;2024-03-02T13:08:35;35.05;;;20.30;;
68192;SDS011;55012;47.562;18.414;2024-03-02T13:11:01;27.08;;;16.60;;
68192;SDS011;55012;47.562;18.414;2024-03-02T13:13:30;30.70;;;17.73;;
68192;SDS011;55012;47.562;18.414;2024-03-02T13:15:56;27.38;;;15.38;;
68192;SDS011;55012;47.562;18.414;2024-03-02T13:18:21;23.38;;;13.88;;
68192;SDS011;55012;47.562;18.414;2024-03-02T13:20:47;22.75;;;13.05;;
68192;SDS011;55012;47.562;18.414;2024-03-02T13:23:12;18.52;;;11.57;;
68192;SDS011;55012;47.562;18.414;2024-03-02T13:25:38;20.83;;;11.85;;
68192;SDS011;55012;47.562;18.414;2024-03-02T13:28:03;21.73;;;12.38;;
68192;SDS011;55012;47.562;18.414;2024-03-02T13:30:29;22.73;;;13.00;;
68192;SDS011;55012;47.562;18.414;2024-03-02T13:32:54;24.38;;;13.73;;
68192;SDS011;55012;47.562;18.414;2024-03-02T13:35:20;22.25;;;12.07;;
68192;SDS011;55012;47.562;18.414;2024-03-02T13:37:45;20.90;;;12.10;;
68192;SDS011;55012;47.562;18.414;2024-03-02T13:40:10;20.83;;;12.05;;
68192;SDS011;55012;47.562;18.414;2024-03-02T13:42:41;22.10;;;12.40;;
68192;SDS011;55012;47.562;18.414;2024-03-02T13:45:07;22.60;;;12.70;;
68192;SDS011;55012;47.562;18.414;2024-03-02T13:47:33;20.45;;;11.40;;
68192;SDS011;55012;47.562;18.414;2024-03-02T13:49:58;30.17;;;10.98;;
68192;SDS011;55012;47.562;18.414;2024-03-02T13:52:24;20.98;;;12.15;;
68192;SDS011;55012;47.562;18.414;2024-03-02T13:54:50;19.15;;;10.88;;
68192;SDS011;55012;47.562;18.414;2024-03-02T13:57:17;18.05;;;11.10;;
68192;SDS011;55012;47.562;18.414;2024-03-02T13:59:45;18.45;;;11.38;;
68192;SDS011;55012;47.562;18.414;2024-03-02T14:02:11;18.08;;;10.43;;
68192;SDS011;55012;47.562;18.414;2024-03-02T14:04:37;19.77;;;11.73;;
68192;SDS011;55012;47.562;18.414;2024-03-02T14:07:04;21.17;;;11.52;;
68192;SDS011;55012;47.562;18.414;2024-03-02T14:09:32;19.85;;;11.38;;